Forside
METAR-TAF:

METAR-TAF

Lufthavne :

Sialkot, Pakistan

Breddekreds: 32-32N, længdekreds: 74-22E, højde: 255 m

Aktuelle vejr

Denne rapport blev lavet for 34 minutter siden, kl. 18:00 UTC
Vind stille
Temperatur 20°C
Fugtighed 68%
Tryk 1013 hPa
Sigt: 5000 m
røg

METAR: OPST 031800Z 00000KT 5000 FU NSC 20/14 Q1013 NOSIG RH68

Tid: 23:34 (18:34 UTC)

Vejrudsigter

Denne rapport blev lavet for 2 timer og 49 minutter siden, kl. 15:45 UTC
Foreløbig gælder fra 03 på 18 UTC til 04 på 24 UTC
Vind 10 kt fra nordvest
Sigt: 4000 m
Nogle få skyer i en højde af 4000 ft
røg

TAF: OPST 031545Z 0318/0424 31010KT 4000 FU FEW040 TX28/0410Z TN13/0401Z

Vejrobservationer og prognoser fra mere end 4000 lufthavne (METAR og TAF).

De gule og røde prikker repræsenterer de meteorologiske stationer.

Flyt musen over at se navnet på stationen.

Så klik over at se vejr observationer og prognoser.

At skifte det kort: Klik på de grønne knapper med et sort kors for at zoome ind; på den grønne knap med en bindestreg for at zoome ud; eller på de grønne pile for tilstødende kort.


METAR-TAF: